createdAt,value
2019-04-01T00:02:16.324Z,99.90
2019-04-01T00:04:44.728Z,99.90
2019-04-01T00:07:13.206Z,99.90
2019-04-01T00:09:41.612Z,99.90
2019-04-01T00:12:10.030Z,99.90
2019-04-01T00:14:38.433Z,99.90
2019-04-01T00:17:06.844Z,99.90
2019-04-01T00:19:35.249Z,99.90
2019-04-01T00:22:03.657Z,99.90
2019-04-01T00:24:32.064Z,99.90
2019-04-01T00:27:00.535Z,99.90
2019-04-01T00:29:28.945Z,99.90
2019-04-01T00:31:57.357Z,99.90
2019-04-01T00:34:25.779Z,99.90
2019-04-01T00:36:54.191Z,99.90
2019-04-01T00:39:22.606Z,99.90
2019-04-01T00:41:52.649Z,99.90
2019-04-01T00:44:21.065Z,99.90
2019-04-01T00:46:49.473Z,99.90
2019-04-01T00:49:17.887Z,99.90
2019-04-01T00:51:46.290Z,99.90
2019-04-01T00:54:14.725Z,99.90
2019-04-01T00:56:43.122Z,99.90
2019-04-01T00:59:11.533Z,99.90
2019-04-01T01:01:39.939Z,99.90
2019-04-01T01:04:08.342Z,99.90
2019-04-01T01:06:37.055Z,99.90
2019-04-01T01:09:06.633Z,99.90
2019-04-01T01:11:35.042Z,99.90
2019-04-01T01:14:03.515Z,99.90
2019-04-01T01:16:31.916Z,99.90
2019-04-01T01:19:00.321Z,99.90
2019-04-01T01:21:28.729Z,99.90
2019-04-01T01:23:57.138Z,99.90
2019-04-01T01:26:25.548Z,99.90
2019-04-01T01:28:53.979Z,99.90
2019-04-01T01:31:22.389Z,99.90
2019-04-01T01:33:50.798Z,99.90
2019-04-01T01:36:19.209Z,99.90
2019-04-01T01:38:47.697Z,99.90
2019-04-01T01:41:16.373Z,99.90
2019-04-01T01:43:44.777Z,99.90
2019-04-01T01:46:13.185Z,99.90
2019-04-01T01:48:41.590Z,99.90
2019-04-01T01:51:10.004Z,99.90
2019-04-01T01:53:41.511Z,99.90
2019-04-01T01:56:08.528Z,99.90
2019-04-01T01:58:36.935Z,99.90
2019-04-01T02:01:05.337Z,99.90
2019-04-01T02:03:33.737Z,99.90
2019-04-01T02:06:02.136Z,99.90
2019-04-01T02:08:30.548Z,99.90
2019-04-01T02:10:58.981Z,99.90
2019-04-01T02:13:27.387Z,99.90
2019-04-01T02:15:55.808Z,99.90
2019-04-01T02:18:24.198Z,99.90
2019-04-01T02:20:52.601Z,99.90
2019-04-01T02:23:21.007Z,99.90
2019-04-01T02:25:49.413Z,99.90
2019-04-01T02:28:17.818Z,99.90
2019-04-01T02:30:46.229Z,99.90
2019-04-01T02:33:14.638Z,99.90
2019-04-01T02:35:43.178Z,99.90
2019-04-01T02:38:11.637Z,99.90
2019-04-01T02:40:40.048Z,99.90
2019-04-01T02:43:08.441Z,99.90
2019-04-01T02:45:36.844Z,99.90
2019-04-01T02:48:05.252Z,99.90
2019-04-01T02:50:33.829Z,99.90
2019-04-01T02:53:02.315Z,99.90
2019-04-01T02:55:30.736Z,99.90
2019-04-01T02:57:59.145Z,99.90
2019-04-01T03:00:27.832Z,99.90
2019-04-01T03:02:56.243Z,99.90
2019-04-01T03:05:24.662Z,99.90
2019-04-01T03:07:53.074Z,99.90
2019-04-01T03:10:21.488Z,99.90
2019-04-01T03:12:49.890Z,99.90
2019-04-01T03:15:18.323Z,99.90
2019-04-01T03:17:46.708Z,99.90
2019-04-01T03:20:15.116Z,99.90
2019-04-01T03:22:43.529Z,99.90
2019-04-01T03:25:11.933Z,99.90
2019-04-01T03:27:40.342Z,99.90
2019-04-01T03:30:08.743Z,99.90
2019-04-01T03:32:44.201Z,99.90
2019-04-01T03:35:07.404Z,99.90
2019-04-01T03:37:35.864Z,99.90
2019-04-01T03:40:06.013Z,99.90
2019-04-01T03:42:34.434Z,99.90
2019-04-01T03:45:02.956Z,99.90
2019-04-01T03:47:31.365Z,99.90
2019-04-01T03:49:59.766Z,99.90
2019-04-01T03:52:28.174Z,99.90
2019-04-01T03:54:56.579Z,99.90
2019-04-01T03:57:25.000Z,99.90
2019-04-01T03:59:53.412Z,99.90
2019-04-01T04:02:21.824Z,99.90
2019-04-01T04:04:50.257Z,99.90
2019-04-01T04:07:18.693Z,99.90
2019-04-01T04:09:47.094Z,99.90
2019-04-01T04:12:15.509Z,99.90
2019-04-01T04:14:43.932Z,99.90
2019-04-01T04:17:12.324Z,99.90
2019-04-01T04:19:40.725Z,99.90
2019-04-01T04:22:09.138Z,99.90
2019-04-01T04:24:38.027Z,99.90
2019-04-01T04:27:10.884Z,99.90
2019-04-01T04:29:36.855Z,99.90
2019-04-01T04:32:05.290Z,99.90
2019-04-01T04:34:34.005Z,99.90
2019-04-01T04:37:02.678Z,99.90
2019-04-01T04:39:31.288Z,99.90
2019-04-01T04:41:59.742Z,99.90
2019-04-01T04:44:28.425Z,99.90
2019-04-01T04:46:57.106Z,99.90
2019-04-01T04:49:25.542Z,99.90
2019-04-01T04:51:54.017Z,99.90
2019-04-01T04:54:22.585Z,99.90
2019-04-01T04:56:51.076Z,99.90
2019-04-01T04:59:19.525Z,99.90
2019-04-01T05:01:47.942Z,99.90
2019-04-01T05:04:16.382Z,99.90
2019-04-01T05:06:44.878Z,99.90
2019-04-01T05:09:13.276Z,99.90
2019-04-01T05:11:41.691Z,99.90
2019-04-01T05:14:10.095Z,99.90
2019-04-01T05:16:38.503Z,99.90
2019-04-01T05:19:06.906Z,99.90
2019-04-01T05:21:36.453Z,99.90
2019-04-01T05:24:04.857Z,99.90
2019-04-01T05:26:36.272Z,99.90
2019-04-01T05:29:05.493Z,99.90
2019-04-01T05:31:35.150Z,99.90
2019-04-01T05:34:03.929Z,99.90
2019-04-01T05:36:32.784Z,99.90
2019-04-01T05:39:01.263Z,99.90
2019-04-01T05:41:29.845Z,99.90
2019-04-01T05:44:02.131Z,99.90
2019-04-01T05:46:29.261Z,99.90
2019-04-01T05:48:57.671Z,99.90
2019-04-01T05:51:26.073Z,99.90
2019-04-01T05:53:54.481Z,99.90
2019-04-01T05:56:23.154Z,99.90
2019-04-01T05:58:51.625Z,99.90
2019-04-01T06:01:27.278Z,99.90
2019-04-01T06:03:55.687Z,99.90
2019-04-01T06:06:24.386Z,99.90
2019-04-01T06:08:53.593Z,99.90
2019-04-01T06:11:21.998Z,99.90
2019-04-01T06:13:50.406Z,99.90
2019-04-01T06:16:18.809Z,99.90
2019-04-01T06:18:47.384Z,99.90
2019-04-01T06:21:15.861Z,99.90
2019-04-01T06:23:44.272Z,99.90
2019-04-01T06:26:12.835Z,99.90
2019-04-01T06:28:41.241Z,99.90
2019-04-01T06:31:09.649Z,99.90
2019-04-01T06:33:38.130Z,99.90
2019-04-01T06:36:06.538Z,99.90
2019-04-01T06:38:35.045Z,99.90
2019-04-01T06:41:03.525Z,99.90
2019-04-01T06:43:31.930Z,99.90
2019-04-01T06:46:00.515Z,99.90
2019-04-01T06:48:28.914Z,99.90
2019-04-01T06:50:57.309Z,99.90
2019-04-01T06:53:26.020Z,99.90
2019-04-01T06:55:54.418Z,99.90
2019-04-01T06:58:22.832Z,99.90
2019-04-01T07:00:51.802Z,99.90
2019-04-01T07:03:20.216Z,99.90
2019-04-01T07:05:49.150Z,99.90
2019-04-01T07:08:17.600Z,99.90
2019-04-01T07:10:45.982Z,99.90
2019-04-01T07:13:14.481Z,99.90
2019-04-01T07:15:42.887Z,99.90
2019-04-01T07:18:11.302Z,99.90
2019-04-01T07:20:40.049Z,99.90
2019-04-01T07:23:08.737Z,99.90
2019-04-01T07:25:37.142Z,99.90
2019-04-01T07:28:05.559Z,99.90
2019-04-01T07:30:33.957Z,99.90
2019-04-01T07:33:02.379Z,99.90
2019-04-01T07:35:30.785Z,99.90
2019-04-01T07:37:59.273Z,99.90
2019-04-01T07:40:27.747Z,99.90
2019-04-01T07:42:56.241Z,92.50
2019-04-01T07:45:24.655Z,81.00
2019-04-01T07:47:53.315Z,65.20
2019-04-01T07:50:21.726Z,55.40
2019-04-01T07:52:50.139Z,50.30
2019-04-01T07:55:18.549Z,46.70
2019-04-01T07:57:47.014Z,45.60
2019-04-01T08:00:15.597Z,43.60
2019-04-01T08:02:44.005Z,41.20
2019-04-01T08:05:12.419Z,38.90
2019-04-01T08:07:40.834Z,40.70
2019-04-01T08:10:10.365Z,38.50
2019-04-01T08:12:38.777Z,36.70
2019-04-01T08:15:07.938Z,34.10
2019-04-01T08:17:36.490Z,35.80
2019-04-01T08:20:05.741Z,33.00
2019-04-01T08:22:34.186Z,31.70
2019-04-01T08:25:03.285Z,31.80
2019-04-01T08:27:31.704Z,32.60
2019-04-01T08:30:00.396Z,33.30
2019-04-01T08:32:28.903Z,32.70
2019-04-01T08:34:57.327Z,31.90
2019-04-01T08:37:25.807Z,31.30
2019-04-01T08:39:54.330Z,31.60
2019-04-01T08:42:23.117Z,30.90
2019-04-01T08:44:51.530Z,30.70
2019-04-01T08:47:19.937Z,29.20
2019-04-01T08:49:48.357Z,29.50
2019-04-01T08:52:16.778Z,30.00
2019-04-01T08:54:45.185Z,28.70
2019-04-01T08:57:13.601Z,28.40
2019-04-01T08:59:42.030Z,28.00
2019-04-01T09:02:17.650Z,27.70
2019-04-01T09:04:40.581Z,27.40
2019-04-01T09:07:08.989Z,27.70
2019-04-01T09:09:38.050Z,27.70
2019-04-01T09:12:06.467Z,27.50
2019-04-01T09:14:35.933Z,27.10
2019-04-01T09:17:04.513Z,27.40
2019-04-01T09:19:32.951Z,27.20
2019-04-01T09:22:01.402Z,27.00
2019-04-01T09:24:29.816Z,27.10
2019-04-01T09:26:58.234Z,27.10
2019-04-01T09:29:26.653Z,27.10
2019-04-01T09:31:55.061Z,27.10
2019-04-01T09:34:23.502Z,27.60
2019-04-01T09:36:51.916Z,26.70
2019-04-01T09:39:20.346Z,26.00
2019-04-01T09:41:48.778Z,26.10
2019-04-01T09:44:17.183Z,26.00
2019-04-01T09:46:48.823Z,25.60
2019-04-01T09:49:15.738Z,25.60
2019-04-01T09:51:48.779Z,24.90
2019-04-01T09:54:14.309Z,26.20
2019-04-01T09:56:42.717Z,26.20
2019-04-01T09:59:11.214Z,26.20
2019-04-01T10:01:39.623Z,25.80
2019-04-01T10:04:08.049Z,26.50
2019-04-01T10:06:36.457Z,26.40
2019-04-01T10:09:07.625Z,26.10
2019-04-01T10:11:36.100Z,25.60
2019-04-01T10:14:04.856Z,26.80
2019-04-01T10:16:33.298Z,27.40
2019-04-01T10:19:01.706Z,27.10
2019-04-01T10:21:30.121Z,25.90
2019-04-01T10:23:58.634Z,25.00
2019-04-01T10:26:27.221Z,25.80
2019-04-01T10:28:55.629Z,27.30
2019-04-01T10:31:24.050Z,26.80
2019-04-01T10:33:52.466Z,27.20
2019-04-01T10:36:20.914Z,26.00
2019-04-01T10:38:49.297Z,26.50
2019-04-01T10:41:17.886Z,26.40
2019-04-01T10:43:46.305Z,25.70
2019-04-01T10:46:14.975Z,26.60
2019-04-01T10:48:43.826Z,26.70
2019-04-01T10:51:12.341Z,26.00
2019-04-01T10:53:40.841Z,26.80
2019-04-01T10:56:09.407Z,29.20
2019-04-01T10:58:37.894Z,28.30
2019-04-01T11:01:06.629Z,28.00
2019-04-01T11:03:35.241Z,28.50
2019-04-01T11:06:03.776Z,28.80
2019-04-01T11:08:32.245Z,29.20
2019-04-01T11:11:00.646Z,29.40
2019-04-01T11:13:29.053Z,30.00
2019-04-01T11:15:57.485Z,31.20
2019-04-01T11:18:25.898Z,30.90
2019-04-01T11:20:56.869Z,33.30
2019-04-01T11:23:24.599Z,34.10
2019-04-01T11:25:53.034Z,36.30
2019-04-01T11:28:21.507Z,34.60
2019-04-01T11:30:49.960Z,34.20
2019-04-01T11:33:18.386Z,34.50
2019-04-01T11:35:47.861Z,34.40
2019-04-01T11:38:16.483Z,34.30
2019-04-01T11:40:44.991Z,34.90
2019-04-01T11:43:13.464Z,35.70
2019-04-01T11:45:42.115Z,35.60
2019-04-01T11:48:10.612Z,37.20
2019-04-01T11:50:39.084Z,37.40
2019-04-01T11:53:07.492Z,37.70
2019-04-01T11:55:35.903Z,36.30
2019-04-01T11:58:04.310Z,37.40
2019-04-01T12:00:33.058Z,36.20
2019-04-01T12:03:01.942Z,37.50
2019-04-01T12:05:30.363Z,36.50
2019-04-01T12:07:58.798Z,36.90
2019-04-01T12:10:27.293Z,35.50
2019-04-01T12:12:55.753Z,35.20
2019-04-01T12:15:24.201Z,35.90
2019-04-01T12:17:52.609Z,35.80
2019-04-01T12:20:21.055Z,36.90
2019-04-01T12:22:49.465Z,35.60
2019-04-01T12:25:17.961Z,36.40
2019-04-01T12:27:46.387Z,35.60
2019-04-01T12:30:15.392Z,37.00
2019-04-01T12:32:44.298Z,35.50
2019-04-01T12:35:12.948Z,38.00
2019-04-01T12:37:41.532Z,36.80
2019-04-01T12:40:10.290Z,36.00
2019-04-01T12:42:38.697Z,36.60
2019-04-01T12:45:07.657Z,37.60
2019-04-01T12:47:36.138Z,36.50
2019-04-01T12:50:05.001Z,35.90
2019-04-01T12:52:33.410Z,36.20
2019-04-01T12:55:01.968Z,36.40
2019-04-01T12:57:30.450Z,35.60
2019-04-01T13:00:02.664Z,35.50
2019-04-01T13:02:31.092Z,35.20
2019-04-01T13:04:59.559Z,36.10
2019-04-01T13:07:27.965Z,35.60
2019-04-01T13:09:56.400Z,36.50
2019-04-01T13:12:27.333Z,35.80
2019-04-01T13:14:55.684Z,35.10
2019-04-01T13:17:24.198Z,36.40
2019-04-01T13:19:52.605Z,38.00
2019-04-01T13:22:21.027Z,36.60
2019-04-01T13:24:49.446Z,37.50
2019-04-01T13:27:17.863Z,36.10
2019-04-01T13:29:46.284Z,35.10
2019-04-01T13:32:14.712Z,35.30
2019-04-01T13:34:43.134Z,35.00
2019-04-01T13:37:11.561Z,36.20
2019-04-01T13:39:40.249Z,35.70
2019-04-01T13:42:08.670Z,35.00
2019-04-01T13:44:37.766Z,33.80
2019-04-01T13:47:06.414Z,34.90
2019-04-01T13:49:34.950Z,36.20
2019-04-01T13:52:03.924Z,34.50
2019-04-01T13:54:32.387Z,33.70
2019-04-01T13:57:00.806Z,32.70
2019-04-01T13:59:29.234Z,33.30
2019-04-01T14:01:57.667Z,35.30
2019-04-01T14:04:27.325Z,34.90
2019-04-01T14:06:55.999Z,35.80
2019-04-01T14:09:24.475Z,36.40
2019-04-01T14:11:52.891Z,36.80
2019-04-01T14:14:21.297Z,36.60
2019-04-01T14:16:49.722Z,37.60
2019-04-01T14:19:18.197Z,37.50
2019-04-01T14:21:46.640Z,37.20
2019-04-01T14:24:15.250Z,37.90
2019-04-01T14:26:44.473Z,38.10
2019-04-01T14:29:16.330Z,38.00
2019-04-01T14:31:43.008Z,37.40
2019-04-01T14:34:13.917Z,36.50
2019-04-01T14:36:41.665Z,36.80
2019-04-01T14:39:10.242Z,37.10
2019-04-01T14:41:38.674Z,38.00
2019-04-01T14:44:07.155Z,38.30
2019-04-01T14:46:35.583Z,38.70
2019-04-01T14:49:04.161Z,38.90
2019-04-01T14:51:32.587Z,39.30
2019-04-01T14:54:01.005Z,38.50
2019-04-01T14:56:29.410Z,37.60
2019-04-01T14:58:57.986Z,38.20
2019-04-01T15:01:26.420Z,39.10
2019-04-01T15:03:54.841Z,40.00
2019-04-01T15:06:23.309Z,40.10
2019-04-01T15:08:51.725Z,39.00
2019-04-01T15:11:20.138Z,39.70
2019-04-01T15:13:48.569Z,40.50
2019-04-01T15:16:17.032Z,40.70
2019-04-01T15:18:45.922Z,42.30
2019-04-01T15:21:14.475Z,41.30
2019-04-01T15:23:42.911Z,41.10
2019-04-01T15:26:11.330Z,40.80
2019-04-01T15:28:39.740Z,41.60
2019-04-01T15:31:08.164Z,42.50
2019-04-01T15:33:36.596Z,41.80
2019-04-01T15:36:27.024Z,41.70
2019-04-01T15:38:55.805Z,43.30
2019-04-01T15:41:26.765Z,43.30
2019-04-01T15:43:54.341Z,43.30
2019-04-01T15:46:22.778Z,42.70
2019-04-01T15:48:51.236Z,42.90
2019-04-01T15:51:19.673Z,43.60
2019-04-01T15:53:48.165Z,44.70
2019-04-01T15:56:17.586Z,45.20
2019-04-01T15:58:46.000Z,45.50
2019-04-01T16:01:14.417Z,44.90
2019-04-01T16:03:42.831Z,44.50
2019-04-01T16:06:11.271Z,44.20
2019-04-01T16:08:39.682Z,44.50
2019-04-01T16:11:08.156Z,45.00
2019-04-01T16:13:37.078Z,44.50
2019-04-01T16:16:07.050Z,44.80
2019-04-01T16:18:35.545Z,45.20
2019-04-01T16:21:04.029Z,45.70
2019-04-01T16:23:32.437Z,45.90
2019-04-01T16:26:00.854Z,45.60
2019-04-01T16:28:29.261Z,45.60
2019-04-01T16:30:57.669Z,46.20
2019-04-01T16:33:26.083Z,46.00
2019-04-01T16:35:54.490Z,46.50
2019-04-01T16:38:22.902Z,46.40
2019-04-01T16:40:52.495Z,46.20
2019-04-01T16:43:21.013Z,46.40
2019-04-01T16:45:49.505Z,47.50
2019-04-01T16:48:17.925Z,48.00
2019-04-01T16:50:46.409Z,47.80
2019-04-01T16:53:14.833Z,48.10
2019-04-01T16:55:43.311Z,49.20
2019-04-01T16:58:11.720Z,49.30
2019-04-01T17:00:40.140Z,48.90
2019-04-01T17:03:08.600Z,49.00
2019-04-01T17:05:37.012Z,49.40
2019-04-01T17:08:05.497Z,50.20
2019-04-01T17:10:33.905Z,50.30
2019-04-01T17:13:02.331Z,51.20
2019-04-01T17:15:31.065Z,50.60
2019-04-01T17:17:59.477Z,51.00
2019-04-01T17:20:27.884Z,51.60
2019-04-01T17:22:56.298Z,53.50
2019-04-01T17:25:26.156Z,54.20
2019-04-01T17:27:54.685Z,54.90
2019-04-01T17:30:23.229Z,57.00
2019-04-01T17:32:51.641Z,57.20
2019-04-01T17:35:20.049Z,59.30
2019-04-01T17:37:48.499Z,61.50
2019-04-01T17:40:17.333Z,64.30
2019-04-01T17:42:46.529Z,68.30
2019-04-01T17:45:24.390Z,72.70
2019-04-01T17:47:52.803Z,78.30
2019-04-01T17:50:21.208Z,82.20
2019-04-01T17:52:49.627Z,87.00
2019-04-01T17:55:18.041Z,91.70
2019-04-01T17:57:46.582Z,95.70
2019-04-01T18:00:18.418Z,97.30
2019-04-01T18:02:46.887Z,99.20
2019-04-01T18:05:16.206Z,99.90
2019-04-01T18:07:44.631Z,99.90
2019-04-01T18:10:13.604Z,99.90
2019-04-01T18:12:42.008Z,99.90
2019-04-01T18:15:10.602Z,99.90
2019-04-01T18:17:39.009Z,99.90
2019-04-01T18:20:08.352Z,99.90
2019-04-01T18:22:36.757Z,99.90
2019-04-01T18:25:07.333Z,99.90
2019-04-01T18:27:35.799Z,99.90
2019-04-01T18:30:06.966Z,99.90
2019-04-01T18:32:35.369Z,99.90
2019-04-01T18:35:05.780Z,99.90
2019-04-01T18:37:34.184Z,99.90
2019-04-01T18:40:02.933Z,99.90
2019-04-01T18:42:31.639Z,99.90
2019-04-01T18:45:00.035Z,99.90
2019-04-01T18:47:28.439Z,99.90
2019-04-01T18:49:56.861Z,99.90
2019-04-01T18:52:25.260Z,99.90
2019-04-01T18:54:53.679Z,99.90
2019-04-01T18:57:22.081Z,99.90
2019-04-01T18:59:50.488Z,99.90
2019-04-01T19:02:19.152Z,99.90
2019-04-01T19:04:47.548Z,99.90
2019-04-01T19:07:15.949Z,99.90
2019-04-01T19:09:44.374Z,99.90
2019-04-01T19:12:12.778Z,99.90
2019-04-01T19:14:41.194Z,99.90
2019-04-01T19:17:09.586Z,99.90
2019-04-01T19:19:40.158Z,99.90
2019-04-01T19:22:08.124Z,99.90
2019-04-01T19:24:36.530Z,99.90
2019-04-01T19:27:04.930Z,99.90
2019-04-01T19:29:33.332Z,99.90
2019-04-01T19:32:01.757Z,99.90
2019-04-01T19:34:30.162Z,99.90
2019-04-01T19:36:59.038Z,99.90
2019-04-01T19:39:30.253Z,99.90
2019-04-01T19:41:57.893Z,99.90
2019-04-01T19:44:26.309Z,99.90
2019-04-01T19:46:54.713Z,99.90
2019-04-01T19:49:23.123Z,99.90
2019-04-01T19:51:51.544Z,99.90
2019-04-01T19:54:30.627Z,99.90
2019-04-01T19:56:50.073Z,99.90
2019-04-01T19:59:18.484Z,99.90
2019-04-01T20:01:46.884Z,99.90
2019-04-01T20:04:15.292Z,99.90
2019-04-01T20:06:43.873Z,99.90
2019-04-01T20:09:12.328Z,99.90
2019-04-01T20:11:40.732Z,99.90
2019-04-01T20:14:10.172Z,99.90
2019-04-01T20:16:40.152Z,99.90
2019-04-01T20:19:09.582Z,99.90
2019-04-01T20:21:37.985Z,99.90
2019-04-01T20:24:07.075Z,99.90
2019-04-01T20:26:35.476Z,99.90
2019-04-01T20:29:04.449Z,99.90
2019-04-01T20:31:32.854Z,99.90
2019-04-01T20:34:04.209Z,99.90
2019-04-01T20:36:31.674Z,99.90
2019-04-01T20:39:00.073Z,99.90
2019-04-01T20:41:28.739Z,99.90
2019-04-01T20:43:57.150Z,99.90
2019-04-01T20:46:25.568Z,99.90
2019-04-01T20:48:53.969Z,99.90
2019-04-01T20:51:22.381Z,99.90
2019-04-01T20:53:51.330Z,99.90
2019-04-01T20:56:20.262Z,99.90
2019-04-01T20:58:49.507Z,99.90
2019-04-01T21:01:17.984Z,99.90
2019-04-01T21:03:46.390Z,99.90
2019-04-01T21:06:14.801Z,99.90
2019-04-01T21:08:43.200Z,99.90
2019-04-01T21:11:11.669Z,99.90
2019-04-01T21:13:40.089Z,99.90
2019-04-01T21:16:08.738Z,99.90
2019-04-01T21:18:37.137Z,99.90
2019-04-01T21:21:05.541Z,99.90
2019-04-01T21:23:33.945Z,99.90
2019-04-01T21:26:02.357Z,99.90
2019-04-01T21:28:30.770Z,99.90
2019-04-01T21:30:59.543Z,99.90
2019-04-01T21:33:28.018Z,99.90
2019-04-01T21:35:56.424Z,99.90
2019-04-01T21:38:24.849Z,99.90
2019-04-01T21:40:53.254Z,99.90
2019-04-01T21:43:21.666Z,99.90
2019-04-01T21:45:50.060Z,99.90
2019-04-01T21:48:18.481Z,99.90
2019-04-01T21:50:46.881Z,99.90
2019-04-01T21:53:15.290Z,99.90
2019-04-01T21:55:43.692Z,99.90
2019-04-01T21:58:12.106Z,99.90
2019-04-01T22:00:57.055Z,99.90
2019-04-01T22:03:25.659Z,99.90
2019-04-01T22:05:54.126Z,99.90
2019-04-01T22:08:22.543Z,99.90
2019-04-01T22:10:51.009Z,99.90
2019-04-01T22:13:19.421Z,99.90
2019-04-01T22:15:47.835Z,99.90
2019-04-01T22:18:16.241Z,99.90
2019-04-01T22:20:44.646Z,99.90
2019-04-01T22:23:13.069Z,99.90
2019-04-01T22:25:41.479Z,99.90
2019-04-01T22:28:09.876Z,99.90
2019-04-01T22:30:38.288Z,99.90
2019-04-01T22:33:06.700Z,99.90
2019-04-01T22:35:39.056Z,99.90
2019-04-01T22:38:06.344Z,99.90
2019-04-01T22:40:35.011Z,99.90
2019-04-01T22:43:03.541Z,99.90
2019-04-01T22:45:31.952Z,99.90
2019-04-01T22:48:00.349Z,99.90
2019-04-01T22:50:28.762Z,99.90
2019-04-01T22:52:57.163Z,99.90
2019-04-01T22:55:25.578Z,99.90
2019-04-01T22:57:53.980Z,99.90
2019-04-01T23:00:22.453Z,99.90
2019-04-01T23:02:50.846Z,99.90
2019-04-01T23:05:19.325Z,99.90
2019-04-01T23:07:47.730Z,99.90
2019-04-01T23:10:16.133Z,99.90
2019-04-01T23:12:44.538Z,99.90
2019-04-01T23:15:15.116Z,99.90
2019-04-01T23:17:43.473Z,99.90
2019-04-01T23:20:11.947Z,99.90
2019-04-01T23:22:40.350Z,99.90
2019-04-01T23:25:08.994Z,99.90
2019-04-01T23:27:37.388Z,99.90
2019-04-01T23:30:10.655Z,99.90
2019-04-01T23:32:41.617Z,99.90
2019-04-01T23:35:09.252Z,99.90
2019-04-01T23:37:38.448Z,99.90
2019-04-01T23:40:07.603Z,99.90
2019-04-01T23:42:37.940Z,99.90
2019-04-01T23:45:07.282Z,99.90
2019-04-01T23:47:35.694Z,99.90
2019-04-01T23:50:09.198Z,99.90
2019-04-01T23:52:38.070Z,99.90
2019-04-01T23:55:07.253Z,99.90
2019-04-01T23:57:36.054Z,99.90
